Flight Track Log - Related Links

Times and Time Zones

All times are in EDT time to prevent confusion due to time zone crossing. See the UPS2752 flight status page for this flight to view local times or setup timezone preferences in your user account.

Time Position Orientation Groundspeed Altitude Reporting Facility
EDT Latitude Longitude Course Direction KTS MPH feet Rate Location/Type
Thu 05:13:09 PM 38.2270 -85.7700 328° Northwest 189 217 3,600  Level FlightAware ADS-B
Thu 05:13:34 PM 38.2510 -85.7900 327° Northwest 247 284 4,100 1,733 Climbing FlightAware ADS-B
Thu 05:13:54 PM 38.2680 -85.8070 322° Northwest 265 305 4,900 3,000 Climbing FlightAware ADS-B
Thu 05:14:04 PM 38.2740 -85.8200 300° West 267 307 5,600 4,080 Climbing FlightAware ADS-B
Thu 05:14:19 PM 38.2780 -85.8450 282° West 274 315 6,600 1,463 Climbing FlightAware ADS-B
Thu 05:14:45 PM 38.2780 -85.8810 270° West 274 315 6,600 3,771 Level FlightAware ADS-B
Thu 05:14:54 PM 38.2650 -85.8990 227° Southwest 292 336 8,800 6,828 Climbing FlightAware ADS-B
Thu 05:15:14 PM 38.2550 -85.9330 249° West 288 331 9,900 2,667 Climbing FlightAware ADS-B
Thu 05:15:39 PM 38.2520 -85.9690 264° West 304 350 10,800 2,200 Climbing FlightAware ADS-B
Thu 05:16:14 PM 38.2470 -86.0430 265° West 358 412 12,100 2,400 Climbing FlightAware ADS-B
Thu 05:16:49 PM 38.2440 -86.1190 267° West 378 435 13,600 1,440 Climbing FlightAware ADS-B
Thu 05:17:29 PM 38.2410 -86.2080 268° West 401 461 13,900 212 Climbing FlightAware ADS-B
Thu 05:18:14 PM 38.2260 -86.3200 260° West 401 461 13,900 150 Level FlightAware ADS-B
Thu 05:18:49 PM 38.2130 -86.3940 257° West 400 460 14,100 1,760 Climbing FlightAware ADS-B
Thu 05:19:29 PM 38.1810 -86.4880 247° West 415 478 16,100 3,000 Climbing FlightAware ADS-B
Thu 05:20:09 PM 38.1400 -86.5610 234° Southwest 417 480 18,100 1,558 Climbing FlightAware ADS-B
Thu 05:20:46 PM 38.1050 -86.6240 235° Southwest 417 480 18,100 2,143 Level FlightAware ADS-B
Thu 05:21:33 PM 38.0380 -86.7350 233° Southwest 442 509 21,100 3,379 Climbing FlightAware ADS-B
Thu 05:22:13 PM 37.9820 -86.8340 234° Southwest 456 525 23,000 2,182 Climbing FlightAware ADS-B
Thu 05:22:50 PM 37.9370 -86.9130 234° Southwest 460 529 23,900 1,818 Climbing FlightAware ADS-B
Thu 05:23:19 PM 37.9000 -86.9780 234° Southwest 465 535 25,000 2,261 Climbing FlightAware ADS-B
Thu 05:23:59 PM 37.8490 -87.0670 234° Southwest 472 543 26,500 2,132 Climbing FlightAware ADS-B
Thu 05:24:35 PM 37.8040 -87.1460 234° Southwest 479 551 27,700 2,137 Climbing FlightAware ADS-B
Thu 05:25:12 PM 37.7570 -87.2260 233° Southwest 480 552 29,100 2,382 Climbing FlightAware ADS-B
Thu 05:25:43 PM 37.7140 -87.3010 234° Southwest 478 550 30,400 2,400 Climbing FlightAware ADS-B
Thu 05:26:17 PM 37.6700 -87.3760 233° Southwest 475 547 31,700 1,333 Climbing FlightAware ADS-B
Thu 05:26:55 PM 37.6210 -87.4610 234° Southwest 473 544 32,000 243 Climbing FlightAware ADS-B
Thu 05:27:31 PM 37.5740 -87.5420 234° Southwest 475 547 32,000  Level FlightAware ADS-B
Thu 05:28:03 PM 37.5330 -87.6130 234° Southwest 475 547 32,000  Level FlightAware ADS-B
Thu 05:28:39 PM 37.4880 -87.6900 234° Southwest 475 547 32,000 583 Level FlightAware ADS-B
Thu 05:29:15 PM 37.4400 -87.7720 234° Southwest 468 539 32,700 1,417 Climbing FlightAware ADS-B
Thu 05:29:51 PM 37.3940 -87.8500 233° Southwest 458 527 33,700 1,083 Climbing FlightAware ADS-B
Thu 05:30:27 PM 37.3480 -87.9270 233° Southwest 460 529 34,000 265 Climbing FlightAware ADS-B
Thu 05:30:59 PM 37.3070 -87.9980 234° Southwest 461 531 34,000  Level FlightAware ADS-B
Thu 05:31:35 PM 37.2630 -88.0730 234° Southwest 462 532 34,000  Level FlightAware ADS-B
Thu 05:32:09 PM 37.2190 -88.1460 233° Southwest 462 532 34,000  Level FlightAware ADS-B
Thu 05:32:45 PM 37.1730 -88.2240 234° Southwest 463 533 34,000  Level FlightAware ADS-B
Thu 05:33:19 PM 37.1290 -88.2970 233° Southwest 463 533 34,000  Level FlightAware ADS-B
Thu 05:33:51 PM 37.0890 -88.3640 233° Southwest 463 533 34,000  Level FlightAware ADS-B
Thu 05:34:29 PM 37.0400 -88.4470 234° Southwest 465 535 34,000  Level FlightAware ADS-B
Thu 05:35:06 PM 36.9920 -88.5270 233° Southwest 465 535 34,000  Level FlightAware ADS-B
Thu 05:35:33 PM 36.9570 -88.5850 233° Southwest 465 535 34,000  Level FlightAware ADS-B
Thu 05:36:10 PM 36.9090 -88.6640 233° Southwest 465 535 34,000  Level FlightAware ADS-B
Thu 05:36:43 PM 36.8670 -88.7350 234° Southwest 466 536 34,000  Level FlightAware ADS-B
Thu 05:37:18 PM 36.8210 -88.8100 233° Southwest 466 536 34,000  Level FlightAware ADS-B
Thu 05:37:56 PM 36.7730 -88.8890 233° Southwest 467 537 34,000  Level FlightAware ADS-B
Thu 05:38:27 PM 36.7310 -88.9590 233° Southwest 468 539 34,000  Level FlightAware ADS-B
Thu 05:39:03 PM 36.6840 -89.0360 233° Southwest 469 540 34,000  Level FlightAware ADS-B
Thu 05:39:37 PM 36.6400 -89.1090 233° Southwest 468 539 34,000  Level FlightAware ADS-B
Thu 05:40:13 PM 36.5920 -89.1860 232° Southwest 469 540 34,000 88 Level FlightAware ADS-B
Thu 05:40:45 PM 36.5500 -89.2560 233° Southwest 469 540 34,100 86 Climbing FlightAware ADS-B
Thu 05:41:23 PM 36.5000 -89.3380 233° Southwest 469 540 34,100 -82 Level FlightAware ADS-B
Thu 05:41:58 PM 36.4550 -89.4100 232° Southwest 468 539 34,000 -83 Descending FlightAware ADS-B
Thu 05:42:35 PM 36.4070 -89.4880 233° Southwest 454 522 34,000  Level FlightAware ADS-B
Thu 05:43:20 PM 36.3520 -89.5750 232° Southwest 454 522 34,000  Level FlightAware ADS-B
Thu 05:43:59 PM 36.2990 -89.6630 233° Southwest 457 526 34,000  Level FlightAware ADS-B
Thu 05:44:49 PM 36.2410 -89.7570 233° Southwest 458 527 34,000  Level FlightAware ADS-B
Thu 05:45:25 PM 36.2010 -89.8200 232° Southwest 458 527 34,000  Level FlightAware ADS-B
Thu 05:46:01 PM 36.1610 -89.8830 232° Southwest 458 527 34,000  Level FlightAware ADS-B
Thu 05:46:37 PM 36.1210 -89.9470 232° Southwest 458 527 34,000  Level FlightAware ADS-B
Thu 05:47:15 PM 36.0440 -90.0710 232° Southwest 462 532 34,000  Level FlightAware ADS-B
Thu 05:47:47 PM 36.0060 -90.1420 237° Southwest 465 535 34,000  Level FlightAware ADS-B
Thu 05:48:24 PM 35.9680 -90.2240 240° Southwest 463 533 34,000  Level FlightAware ADS-B
Thu 05:49:11 PM 35.9150 -90.3340 239° Southwest 463 533 34,000  Level FlightAware ADS-B
Thu 05:49:43 PM 35.8810 -90.4050 239° Southwest 462 532 34,000  Level FlightAware ADS-B
Thu 05:50:21 PM 35.8440 -90.4820 239° Southwest 463 533 34,000  Level FlightAware ADS-B
Thu 05:50:57 PM 35.8100 -90.5510 239° Southwest 463 533 34,000  Level FlightAware ADS-B
Thu 05:51:33 PM 35.7760 -90.6200 239° Southwest 463 533 34,000  Level FlightAware ADS-B
Thu 05:52:09 PM 35.7420 -90.6900 239° Southwest 463 533 34,000  Level FlightAware ADS-B
Thu 05:52:45 PM 35.7090 -90.7590 240° Southwest 463 533 34,000  Level FlightAware ADS-B
Thu 05:53:31 PM 35.6650 -90.8470 238° Southwest 463 533 34,000  Level FlightAware ADS-B
Thu 05:54:07 PM 35.5890 -91.0090 240° Southwest 474 545 34,000  Level FlightAware ADS-B
Thu 05:54:41 PM 35.5510 -91.0880 239° Southwest 476 548 34,000  Level FlightAware ADS-B
Thu 05:55:17 PM 35.5120 -91.1680 239° Southwest 476 548 34,000  Level FlightAware ADS-B
Thu 05:55:58 PM 35.4690 -91.2550 239° Southwest 476 548 34,000  Level FlightAware ADS-B
Thu 05:56:33 PM 35.4230 -91.3480 239° Southwest 477 549 34,000  Level FlightAware ADS-B
Thu 05:57:13 PM 35.3840 -91.4250 238° Southwest 477 549 34,000  Level FlightAware ADS-B
Thu 05:57:52 PM 35.3360 -91.5270 240° Southwest 478 550 34,000  Level FlightAware ADS-B
Thu 05:58:29 PM 35.2970 -91.6030 238° Southwest 479 551 34,000  Level FlightAware ADS-B
Thu 05:59:06 PM 35.2480 -91.7020 239° Southwest 479 551 34,000  Level FlightAware ADS-B
Thu 05:59:45 PM 35.2090 -91.7780 238° Southwest 479 551 34,000  Level FlightAware ADS-B
Thu 06:00:20 PM 35.1630 -91.8720 239° Southwest 481 554 34,000  Level FlightAware ADS-B
Thu 06:00:52 PM 35.1270 -91.9450 239° Southwest 480 552 34,000  Level FlightAware ADS-B
Thu 06:01:29 PM 35.0900 -92.0180 238° Southwest 480 552 34,000  Level FlightAware ADS-B
Thu 06:02:05 PM 35.0540 -92.0880 238° Southwest 480 552 34,000  Level FlightAware ADS-B
Thu 06:02:41 PM 35.0180 -92.1590 238° Southwest 480 552 34,000  Level FlightAware ADS-B
Thu 06:03:17 PM 34.9820 -92.2290 238° Southwest 480 552 34,000  Level FlightAware ADS-B
Thu 06:03:54 PM 34.9450 -92.3010 238° Southwest 480 552 34,000  Level FlightAware ADS-B
Thu 06:04:30 PM 34.9090 -92.3710 238° Southwest 480 552 34,000  Level FlightAware ADS-B
Thu 06:05:05 PM 34.8740 -92.4400 238° Southwest 480 552 34,000  Level FlightAware ADS-B
Thu 06:05:41 PM 34.8380 -92.5100 238° Southwest 480 552 34,000  Level FlightAware ADS-B
Thu 06:06:17 PM 34.8020 -92.5800 238° Southwest 480 552 34,000  Level FlightAware ADS-B
Thu 06:06:53 PM 34.7660 -92.6500 238° Southwest 480 552 34,000  Level FlightAware ADS-B
Thu 06:07:29 PM 34.7300 -92.7200 238° Southwest 480 552 34,000  Level FlightAware ADS-B
Thu 06:08:05 PM 34.6940 -92.7910 238° Southwest 480 552 34,000  Level FlightAware ADS-B
Thu 06:08:39 PM 34.6600 -92.8570 238° Southwest 480 552 34,000  Level FlightAware ADS-B
Thu 06:08:43 PM 34.6960 -93.0950 280° West 34,000  Level FlightAware ADS-B
Thu 06:09:33 PM 34.6140 -93.1900 224° Southwest 488 562 34,000  Level FlightAware ADS-B
Thu 06:10:06 PM 34.5670 -93.2430 223° Southwest 487 560 34,000  Level FlightAware ADS-B
Thu 06:10:38 PM 34.5150 -93.3020 223° Southwest 485 558 34,000  Level FlightAware ADS-B
Thu 06:11:18 PM 34.4420 -93.3840 223° Southwest 485 558 34,000  Level FlightAware ADS-B
Thu 06:11:53 PM 34.3870 -93.4460 223° Southwest 485 558 34,000  Level FlightAware ADS-B
Thu 06:12:38 PM 34.3230 -93.5390 230° Southwest 481 554 34,000  Level FlightAware ADS-B
Thu 06:13:25 PM 34.2820 -93.6390 244° Southwest 466 536 34,000  Level FlightAware ADS-B
Thu 06:13:53 PM 34.2670 -93.7120 256° West 462 532 34,000  Level FlightAware ADS-B
Thu 06:15:09 PM 34.2430 -93.7970 251° West 462 532 34,000  Level FlightAware ADS-B
Thu 06:15:45 PM 34.2210 -93.8720 250° West 462 532 34,000  Level FlightAware ADS-B
Thu 06:16:21 PM 34.2000 -93.9470 251° West 462 532 34,000  Level FlightAware ADS-B
Thu 06:16:57 PM 34.1790 -94.0220 251° West 462 532 34,000  Level FlightAware ADS-B
Thu 06:17:33 PM 34.1570 -94.0970 251° West 462 532 34,000  Level FlightAware ADS-B
Thu 06:18:46 PM 34.0660 -94.4300 252° West 461 531 34,000  Level FlightAware ADS-B
Thu 06:19:41 PM 34.0300 -94.5560 251° West 461 531 34,000  Level FlightAware ADS-B
Thu 06:20:17 PM 34.0090 -94.6300 251° West 461 531 34,000  Level FlightAware ADS-B
Thu 06:20:53 PM 33.9870 -94.7050 251° West 461 531 34,000 -1,457 Level FlightAware ADS-B
Thu 06:21:27 PM 33.9490 -94.8370 251° West 465 535 32,300 -1,397 Descending FlightAware ADS-B
Thu 06:22:06 PM 33.9260 -94.9180 251° West 465 535 32,300 -960 Level FlightAware ADS-B
Thu 06:22:42 PM 33.8960 -95.0220 251° West 469 540 31,100 -1,521 Descending FlightAware ADS-B
Thu 06:23:17 PM 33.8710 -95.1080 251° West 470 541 30,500 -1,014 Descending FlightAware ADS-B
Thu 06:23:53 PM 33.8450 -95.1980 251° West 472 543 29,900 -985 Descending FlightAware ADS-B
Thu 06:24:24 PM 33.8230 -95.2740 251° West 476 548 29,400 -667 Descending FlightAware ADS-B
Thu 06:25:23 PM 33.7830 -95.4100 251° West 478 550 28,900 -2,043 Descending FlightAware ADS-B
Thu 06:25:58 PM 33.7540 -95.5110 251° West 478 550 26,200 -3,857 Descending FlightAware ADS-B
Thu 06:26:33 PM 33.7280 -95.5970 250° West 477 549 24,400 -2,282 Descending FlightAware ADS-B
Thu 06:27:09 PM 33.7010 -95.6820 249° West 443 510 23,500 -2,000 Descending FlightAware ADS-B
Thu 06:27:45 PM 33.6770 -95.7630 250° West 421 484 22,000 -3,138 Descending FlightAware ADS-B
Thu 06:28:14 PM 33.6580 -95.8280 251° West 424 488 20,100 -2,857 Descending FlightAware ADS-B
Thu 06:28:48 PM 33.6370 -95.9020 251° West 391 450 19,000 -2,314 Descending FlightAware ADS-B
Thu 06:29:24 PM 33.6160 -95.9740 251° West 377 434 17,400 -2,507 Descending FlightAware ADS-B
Thu 06:29:55 PM 33.5990 -96.0310 250° West 373 429 16,200 -2,118 Descending FlightAware ADS-B
Thu 06:30:32 PM 33.5770 -96.1060 251° West 363 418 15,000 -1,808 Descending FlightAware ADS-B
Thu 06:31:08 PM 33.5580 -96.1700 250° West 354 407 14,000 -1,726 Descending FlightAware ADS-B
Thu 06:31:45 PM 33.5330 -96.2370 246° West 344 396 12,900 -1,859 Descending FlightAware ADS-B
Thu 06:32:19 PM 33.4970 -96.2850 228° Southwest 342 394 11,800 -1,371 Descending FlightAware ADS-B
Thu 06:32:55 PM 33.4570 -96.3320 224° Southwest 317 365 11,300 -716 Descending FlightAware ADS-B
Thu 06:33:26 PM 33.4260 -96.3690 225° Southwest 298 343 11,000 -364 Descending FlightAware ADS-B
Thu 06:34:01 PM 33.3920 -96.4090 224° Southwest 298 343 10,900 -686 Descending FlightAware ADS-B
Thu 06:34:36 PM 33.3570 -96.4500 224° Southwest 297 342 10,200 -1,358 Descending FlightAware ADS-B
Thu 06:34:54 PM 33.3400 -96.4710 226° Southwest 293 337 9,700 -1,622 Descending FlightAware ADS-B
Thu 06:35:13 PM 33.3220 -96.4910 223° Southwest 292 336 9,200 -1,538 Descending FlightAware ADS-B
Thu 06:35:33 PM 33.3030 -96.5140 225° Southwest 291 335 8,700 -1,333 Descending FlightAware ADS-B
Thu 06:35:49 PM 33.2870 -96.5330 225° Southwest 287 330 8,400 -1,263 Descending FlightAware ADS-B
Thu 06:36:11 PM 33.2690 -96.5590 230° Southwest 284 327 7,900 -1,440 Descending FlightAware ADS-B
Thu 06:36:14 PM 33.2670 -96.5640 244° Southwest 283 326 7,800 -1,091 Descending FlightAware ADS-B
Thu 06:36:22 PM 33.2630 -96.5760 248° West 279 321 7,700 -1,200 Descending FlightAware ADS-B
Thu 06:36:34 PM 33.2600 -96.5940 259° West 278 320 7,400 -1,459 Descending FlightAware ADS-B
Thu 06:36:59 PM 33.2510 -96.6300 253° West 276 318 6,800 -1,500 Descending FlightAware ADS-B
Thu 06:37:10 PM 33.2490 -96.6460 262° West 275 316 6,500 -1,714 Descending FlightAware ADS-B
Thu 06:37:34 PM 33.2520 -96.6830 276° West 275 316 5,800 -1,364 Descending FlightAware ADS-B
Thu 06:37:54 PM 33.2540 -96.7130 275° West 270 311 5,500 -1,050 Descending FlightAware ADS-B
Thu 06:38:14 PM 33.2570 -96.7420 277° West 268 308 5,100 -750 Descending FlightAware ADS-B
Thu 06:38:34 PM 33.2600 -96.7700 277° West 273 314 5,000 -136 Descending FlightAware ADS-B
Thu 06:38:58 PM 33.2630 -96.8070 276° West 271 312 5,000  Level FlightAware ADS-B
Thu 06:39:17 PM 33.2650 -96.8350 275° West 269 310 5,000  Level FlightAware ADS-B
Thu 06:39:39 PM 33.2600 -96.8620 258° West 265 305 5,000  Level FlightAware ADS-B
Thu 06:39:59 PM 33.2480 -96.8940 246° West 274 315 5,000  Level FlightAware ADS-B
Thu 06:40:13 PM 33.2410 -96.9140 247° West 273 314 5,000  Level FlightAware ADS-B
Thu 06:40:35 PM 33.2310 -96.9430 248° West 253 291 5,000 -146 Level FlightAware ADS-B
Thu 06:40:54 PM 33.2230 -96.9650 247° West 233 268 4,900 -514 Descending FlightAware ADS-B
Thu 06:41:10 PM 33.2160 -96.9810 242° Southwest 227 261 4,700 -960 Descending FlightAware ADS-B
Thu 06:41:19 PM 33.2080 -96.9900 223° Southwest 225 259 4,500 -1,200 Descending FlightAware ADS-B
Thu 06:41:35 PM 33.1950 -96.9990 210° Southwest 220 253 4,200 -750 Descending FlightAware ADS-B
Thu 06:41:59 PM 33.1700 -97.0140 207° Southwest 223 257 4,000 -286 Descending FlightAware ADS-B
Thu 06:42:17 PM 33.1540 -97.0230 205° Southwest 221 254 4,000  Level FlightAware ADS-B
Thu 06:42:27 PM 33.1440 -97.0250 190° South 222 255 4,000 -231 Level FlightAware ADS-B
Thu 06:42:43 PM 33.1270 -97.0250 180° South 222 255 3,900 -714 Descending FlightAware ADS-B
Thu 06:43:09 PM 33.1000 -97.0250 180° South 224 258 3,500 -536 Descending FlightAware ADS-B
Thu 06:43:39 PM 33.0690 -97.0250 180° South 217 250 3,400 -545 Descending FlightAware ADS-B
Thu 06:43:53 PM 33.0550 -97.0250 180° South 212 244 3,100 -1,050 Descending FlightAware ADS-B
Thu 06:44:19 PM 33.0310 -97.0250 180° South 197 227 2,700 -1,043 Descending FlightAware ADS-B
Thu 06:44:39 PM 33.0130 -97.0250 180° South 177 204 2,300 -818 Descending FlightAware ADS-B
Thu 06:45:03 PM 32.9960 -97.0260 183° South 175 201 2,100 -818 Descending FlightAware ADS-B
Thu 06:45:23 PM 32.9780 -97.0260 180° South 177 204 1,700 -1,000 Descending FlightAware ADS-B
Thu 06:45:39 PM 32.9670 -97.0260 180° South 176 203 1,500 -293 Descending FlightAware ADS-B
Thu 06:46:04 PM 32.9490 -97.0260 180° South 176 203 1,500  Level FlightAware ADS-B
Thu 06:54:00 PM 32.8968 -97.0380 185° South  Level Estimated

Login

Don't have an account? Register now (free) for customized features, flight alerts, and more!